Amherst, Ohio
Current Conditions -  °F | °C
As of 5:53 AM on Saturday 01 Nov 2014 (Local Time) from KLPR Reporting Station
Light Rain Light Rain  
Wind Chill: 28°   Ceiling: 1000
Heat Index: 39°   Visibility: 9mi
Dew Point: 37°   Wind: 23mph
Humidity: 93%   Direction: 20°NNE
Pressure: 30.06"   Gusts: 30mph
Location:  41.41°N, 82.24°W
Report Text: KLPR 010953Z AUTO 02020G26KT 9SM -RA OVC010 04/03 A3006 RMK AO2 PK WND 04030/0857 CIG 009V013 SLP183 P0007 T00390028 TSNO
Loading
Personal Weather Stations






























Interactive Weather Map
Tropical Storm Tracking
New forecast layout! Learn more

10-Day Weather Forecast

Advertisements
Track Severe Weather on mobile